Airfield :
LOGIN :

Register | Disclaimer

   EN    FR    IT 

 










Legend :    VFR   Marginal VFR   IFR   Intensive IFR   Very Intensive IFR
Visi :
Ceiling :
>= 8 km
>= 3000ft
5 to 8 km
1000 to 3000 ft
1500m to 5 km
500 to 1000 ft
800 to 1500m
200 to 500 ft
< 800m
< 200 ft
Symbols :   Thunderstorms  Fog  Heavy snow  Heavy precipitations  Wind > 20 kt
SIGMETs :     Misc.  Thunderstorms  Icing  Turbulence  Mountain Waves  Volcanic Ashes






- Airport Elevation : 13 ft
- IATA code : LYX


EGMD - Lydd

CURRENT METAR :
  • 130920Z 29019KT 9999 BKN023 OVC034 07/05 Q0979

EXPIRED METARs :
  • 130850Z 28021KT 9999 FEW021 BKN026 BKN030 07/05 Q0978
  • 130820Z 28020KT 9999 FEW022 SCT027 BKN045 07/05 Q0977
  • 130750Z AUTO 29022KT 9999 -RA BKN024/// OVC033/// 07/05 Q0976
  • 130720Z AUTO 29021KT 9999 BKN025/// 07/04 Q0975
  • 130650Z AUTO 29022KT 9999 SCT021/// OVC026/// 07/04 Q0975

TAF TAF EGMD
Valid from the 13 at 09:00 until the 13 at 18:00 UTC


130803Z 1309/1318 27020KT 9999 SCT030
TEMPO 1309/1310 6000 RA BKN015
TEMPO 1309/1318 27025G35KT
ATIS : +44 1797 322 422



MET'MAP, your aeronautical weather chart ! - Copyright ORBIFLY December 2007 - Disclaimer

ORBIFLY MET'MAP TEAM :

Programming & Development : Alexandra Zaïnal
Concept & original design : Baudouin d'Aumeries
Assistance for programming : Marc-Olivier Méhu
Technical & hardware support : Manuel Goepfert

Contact : metmap@orbifly.com




SOURCES & CREDITS :

   NOAA